createdAt,value
2022-12-29T00:00:20.529Z,87.64
2022-12-29T00:02:47.610Z,87.86
2022-12-29T00:05:14.538Z,88.43
2022-12-29T00:07:41.509Z,88.90
2022-12-29T00:10:08.830Z,89.05
2022-12-29T00:12:55.870Z,88.86
2022-12-29T00:15:40.966Z,89.02
2022-12-29T00:18:08.591Z,89.18
2022-12-29T00:20:56.059Z,89.22
2022-12-29T00:23:41.958Z,89.28
2022-12-29T00:26:45.629Z,89.05
2022-12-29T00:29:30.913Z,89.50
2022-12-29T00:32:16.350Z,89.16
2022-12-29T00:35:03.504Z,89.27
2022-12-29T00:37:49.147Z,88.99
2022-12-29T00:40:34.389Z,88.22
2022-12-29T00:43:19.913Z,88.35
2022-12-29T00:45:46.694Z,88.26
2022-12-29T00:48:13.783Z,88.29
2022-12-29T00:50:40.905Z,87.89
2022-12-29T00:53:07.673Z,87.87
2022-12-29T00:55:39.184Z,88.16
2022-12-29T00:58:06.216Z,88.21
2022-12-29T01:00:33.021Z,87.80
2022-12-29T01:02:59.932Z,87.42
2022-12-29T01:05:26.853Z,87.21
2022-12-29T01:07:53.621Z,87.20
2022-12-29T01:10:20.675Z,87.33
2022-12-29T01:12:48.576Z,87.16
2022-12-29T01:15:16.681Z,87.40
2022-12-29T01:17:43.870Z,87.30
2022-12-29T01:20:12.154Z,87.14
2022-12-29T01:22:40.012Z,87.16
2022-12-29T01:25:07.819Z,86.44
2022-12-29T01:27:34.685Z,86.76
2022-12-29T01:30:01.731Z,86.83
2022-12-29T01:32:28.705Z,86.75
2022-12-29T01:34:55.499Z,86.73
2022-12-29T01:37:22.337Z,86.51
2022-12-29T01:39:49.108Z,86.40
2022-12-29T01:42:23.401Z,86.67
2022-12-29T01:45:04.924Z,86.51
2022-12-29T01:47:39.449Z,86.85
2022-12-29T01:50:30.304Z,87.38
2022-12-29T01:53:29.475Z,87.34
2022-12-29T01:56:02.051Z,87.65
2022-12-29T01:58:35.410Z,87.72
2022-12-29T02:01:03.513Z,87.72
2022-12-29T02:03:33.800Z,87.79
2022-12-29T02:06:09.859Z,87.98
2022-12-29T02:08:37.229Z,88.32
2022-12-29T02:11:04.421Z,87.96
2022-12-29T02:13:31.637Z,88.84
2022-12-29T02:16:23.744Z,89.86
2022-12-29T02:19:02.627Z,90.56
2022-12-29T02:21:53.493Z,92.25
2022-12-29T02:24:50.972Z,92.56
2022-12-29T02:28:10.598Z,93.92
2022-12-29T02:31:04.517Z,94.80
2022-12-29T02:34:03.097Z,95.64
2022-12-29T02:36:46.806Z,96.26
2022-12-29T02:39:51.470Z,97.36
2022-12-29T02:42:30.800Z,98.29
2022-12-29T02:45:26.721Z,99.36
2022-12-29T02:48:05.078Z,99.50
2022-12-29T02:50:40.866Z,98.98
2022-12-29T02:53:18.559Z,98.51
2022-12-29T02:55:53.444Z,98.15
2022-12-29T02:58:23.558Z,98.30
2022-12-29T03:01:27.489Z,98.08
2022-12-29T03:04:29.429Z,97.49
2022-12-29T03:07:18.540Z,97.15
2022-12-29T03:10:08.862Z,96.83
2022-12-29T03:13:13.077Z,97.27
2022-12-29T03:16:06.680Z,95.74
2022-12-29T03:18:42.884Z,95.78
2022-12-29T03:21:50.135Z,95.74
2022-12-29T03:24:19.905Z,95.62
2022-12-29T03:26:49.134Z,95.65
2022-12-29T03:29:18.547Z,96.17
2022-12-29T03:31:46.913Z,95.83
2022-12-29T03:34:15.914Z,95.69
2022-12-29T03:37:02.613Z,95.45
2022-12-29T03:39:29.942Z,95.36
2022-12-29T03:42:04.500Z,95.88
2022-12-29T03:44:38.500Z,95.85
2022-12-29T03:47:06.630Z,96.13
2022-12-29T03:49:35.150Z,95.73
2022-12-29T03:52:02.095Z,95.79
2022-12-29T03:54:28.904Z,96.03
2022-12-29T03:56:55.715Z,95.98
2022-12-29T03:59:22.602Z,95.88
2022-12-29T04:01:49.540Z,95.71
2022-12-29T04:04:16.611Z,95.61
2022-12-29T04:06:44.556Z,96.25
2022-12-29T04:09:12.455Z,96.22
2022-12-29T04:11:39.235Z,96.31
2022-12-29T04:14:06.047Z,96.55
2022-12-29T04:16:36.962Z,96.38
2022-12-29T04:19:04.007Z,96.49
2022-12-29T04:21:31.016Z,96.84
2022-12-29T04:23:57.901Z,96.80
2022-12-29T04:26:24.713Z,96.73
2022-12-29T04:28:51.492Z,96.67
2022-12-29T04:31:18.298Z,96.64
2022-12-29T04:33:45.716Z,96.44
2022-12-29T04:36:12.503Z,96.08
2022-12-29T04:38:39.319Z,96.05
2022-12-29T04:41:06.568Z,96.21
2022-12-29T04:43:33.352Z,96.34
2022-12-29T04:46:01.034Z,96.63
2022-12-29T04:48:27.865Z,96.57
2022-12-29T04:50:54.819Z,96.45
2022-12-29T04:53:21.767Z,96.81
2022-12-29T04:55:52.842Z,96.43
2022-12-29T04:58:23.576Z,96.71
2022-12-29T05:00:52.474Z,96.78
2022-12-29T05:03:19.727Z,97.01
2022-12-29T05:05:46.963Z,97.56
2022-12-29T05:08:13.814Z,97.41
2022-12-29T05:10:41.059Z,97.30
2022-12-29T05:13:08.154Z,96.80
2022-12-29T05:15:34.935Z,96.93
2022-12-29T05:18:01.910Z,97.71
2022-12-29T05:20:28.726Z,97.53
2022-12-29T05:22:55.517Z,97.29
2022-12-29T05:25:22.354Z,97.33
2022-12-29T05:27:49.141Z,97.49
2022-12-29T05:30:15.985Z,97.15
2022-12-29T05:32:43.086Z,96.93
2022-12-29T05:35:09.990Z,96.78
2022-12-29T05:37:36.809Z,96.69
2022-12-29T05:40:04.894Z,96.68
2022-12-29T05:42:31.689Z,96.72
2022-12-29T05:44:58.458Z,96.24
2022-12-29T05:47:25.337Z,96.45
2022-12-29T05:49:52.800Z,95.87
2022-12-29T05:52:19.690Z,95.39
2022-12-29T05:54:46.712Z,95.83
2022-12-29T05:57:15.807Z,95.71
2022-12-29T05:59:42.617Z,95.62
2022-12-29T06:02:11.085Z,95.37
2022-12-29T06:04:37.994Z,95.45
2022-12-29T06:07:04.785Z,95.24
2022-12-29T06:09:31.695Z,95.48
2022-12-29T06:11:58.489Z,95.34
2022-12-29T06:14:25.254Z,95.42
2022-12-29T06:16:52.083Z,95.24
2022-12-29T06:19:18.944Z,95.55
2022-12-29T06:21:46.045Z,95.15
2022-12-29T06:24:12.874Z,95.22
2022-12-29T06:26:41.234Z,95.28
2022-12-29T06:29:09.541Z,95.37
2022-12-29T06:31:36.537Z,95.13
2022-12-29T06:34:08.256Z,95.63
2022-12-29T06:36:35.969Z,95.48
2022-12-29T06:39:02.753Z,95.24
2022-12-29T06:41:32.356Z,95.15
2022-12-29T06:43:59.513Z,94.71
2022-12-29T06:46:26.575Z,94.74
2022-12-29T06:48:53.554Z,94.32
2022-12-29T06:51:20.378Z,94.50
2022-12-29T06:53:47.144Z,94.13
2022-12-29T06:56:13.990Z,94.00
2022-12-29T06:58:40.784Z,94.09
2022-12-29T07:01:07.880Z,93.95
2022-12-29T07:03:34.720Z,94.08
2022-12-29T07:06:01.547Z,93.66
2022-12-29T07:08:28.661Z,93.52
2022-12-29T07:10:55.497Z,93.77
2022-12-29T07:13:22.281Z,93.55
2022-12-29T07:15:49.113Z,93.79
2022-12-29T07:18:15.922Z,93.48
2022-12-29T07:20:44.452Z,93.99
2022-12-29T07:23:11.286Z,94.04
2022-12-29T07:25:38.056Z,94.17
2022-12-29T07:28:05.285Z,94.47
2022-12-29T07:30:32.121Z,94.59
2022-12-29T07:32:59.025Z,94.24
2022-12-29T07:35:25.876Z,94.26
2022-12-29T07:37:52.701Z,94.21
2022-12-29T07:40:19.559Z,93.76
2022-12-29T07:42:46.809Z,92.91
2022-12-29T07:45:13.677Z,92.56
2022-12-29T07:47:40.459Z,92.49
2022-12-29T07:50:07.721Z,92.80
2022-12-29T07:52:34.624Z,93.36
2022-12-29T07:55:01.417Z,93.53
2022-12-29T07:57:32.150Z,93.72
2022-12-29T07:59:59.757Z,93.74
2022-12-29T08:02:27.977Z,93.21
2022-12-29T08:04:55.122Z,93.63
2022-12-29T08:07:22.296Z,92.78
2022-12-29T08:09:49.100Z,92.40
2022-12-29T08:12:16.495Z,92.27
2022-12-29T08:14:43.311Z,91.67
2022-12-29T08:17:11.141Z,91.33
2022-12-29T08:19:39.050Z,91.10
2022-12-29T08:22:05.963Z,91.50
2022-12-29T08:24:32.773Z,91.46
2022-12-29T08:27:04.551Z,91.65
2022-12-29T08:29:36.014Z,91.41
2022-12-29T08:32:02.797Z,91.55
2022-12-29T08:34:31.402Z,91.68
2022-12-29T08:36:58.588Z,91.69
2022-12-29T08:39:25.424Z,91.86
2022-12-29T08:41:52.350Z,91.86
2022-12-29T08:44:19.177Z,92.33
2022-12-29T08:46:46.033Z,92.59
2022-12-29T08:49:13.181Z,92.96
2022-12-29T08:51:40.127Z,92.76
2022-12-29T08:54:06.967Z,92.85
2022-12-29T08:56:33.990Z,92.73
2022-12-29T08:59:00.968Z,92.35
2022-12-29T09:01:27.983Z,92.56
2022-12-29T09:06:43.388Z,91.73
2022-12-29T09:09:10.331Z,91.92
2022-12-29T09:11:37.375Z,91.93
2022-12-29T09:14:05.069Z,91.98
2022-12-29T09:16:32.548Z,91.85
2022-12-29T09:18:59.437Z,91.57
2022-12-29T09:21:26.883Z,91.56
2022-12-29T09:23:53.760Z,91.45
2022-12-29T09:26:20.562Z,91.46
2022-12-29T09:28:48.283Z,91.38
2022-12-29T09:31:15.663Z,90.93
2022-12-29T09:33:42.540Z,90.85
2022-12-29T09:36:09.996Z,91.10
2022-12-29T09:38:36.867Z,91.16
2022-12-29T09:41:19.796Z,90.90
2022-12-29T09:44:05.987Z,90.54
2022-12-29T09:46:42.529Z,90.51
2022-12-29T09:49:47.148Z,90.45
2022-12-29T09:52:30.796Z,90.29
2022-12-29T09:55:14.035Z,90.62
2022-12-29T09:57:58.908Z,90.46
2022-12-29T10:00:40.227Z,89.35
2022-12-29T10:03:20.810Z,89.01
2022-12-29T10:06:38.266Z,88.72
2022-12-29T10:09:49.503Z,87.91
2022-12-29T10:12:49.418Z,87.91
2022-12-29T10:15:46.483Z,87.53
2022-12-29T10:18:33.926Z,87.66
2022-12-29T10:21:25.853Z,87.39
2022-12-29T10:23:54.308Z,86.64
2022-12-29T10:26:46.297Z,85.70
2022-12-29T10:29:21.604Z,84.55
2022-12-29T10:32:01.521Z,83.46
2022-12-29T10:34:53.913Z,82.32
2022-12-29T10:37:50.057Z,82.68
2022-12-29T10:40:47.520Z,83.29
2022-12-29T10:43:45.565Z,84.06
2022-12-29T10:46:19.243Z,83.85
2022-12-29T10:48:47.834Z,83.72
2022-12-29T10:51:39.984Z,82.51
2022-12-29T10:54:34.264Z,82.95
2022-12-29T10:57:09.059Z,82.89
2022-12-29T10:59:38.723Z,82.37
2022-12-29T11:02:11.625Z,82.96
2022-12-29T11:04:47.163Z,83.29
2022-12-29T11:07:22.175Z,83.47
2022-12-29T11:09:52.048Z,83.93
2022-12-29T11:12:27.947Z,83.33
2022-12-29T11:15:16.013Z,82.99
2022-12-29T11:17:51.311Z,82.74
2022-12-29T11:20:39.778Z,82.84
2022-12-29T11:23:34.637Z,82.64
2022-12-29T11:26:15.712Z,81.94
2022-12-29T11:28:49.393Z,81.51
2022-12-29T11:31:23.165Z,80.96
2022-12-29T11:33:50.391Z,80.17
2022-12-29T11:36:25.955Z,79.51
2022-12-29T11:38:55.939Z,79.07
2022-12-29T11:41:30.077Z,78.83
2022-12-29T11:44:04.218Z,79.68
2022-12-29T11:46:36.112Z,80.19
2022-12-29T11:49:05.262Z,80.38
2022-12-29T11:51:49.324Z,80.82
2022-12-29T11:54:38.805Z,80.40
2022-12-29T11:57:17.255Z,81.06
2022-12-29T11:59:56.546Z,80.57
2022-12-29T12:02:28.896Z,81.46
2022-12-29T12:05:10.091Z,81.44
2022-12-29T12:07:47.889Z,80.85
2022-12-29T12:10:29.325Z,80.67
2022-12-29T12:13:06.214Z,81.00
2022-12-29T12:16:01.003Z,80.28
2022-12-29T12:19:28.626Z,80.14
2022-12-29T12:22:05.446Z,80.13
2022-12-29T12:24:35.199Z,79.42
2022-12-29T12:27:15.355Z,80.20
2022-12-29T12:30:24.604Z,79.76
2022-12-29T12:33:02.349Z,79.68
2022-12-29T12:36:25.446Z,79.59
2022-12-29T12:39:13.310Z,79.85
2022-12-29T12:41:58.017Z,80.08
2022-12-29T12:44:24.816Z,80.56
2022-12-29T12:47:32.529Z,79.70
2022-12-29T12:50:50.208Z,78.81
2022-12-29T12:53:56.135Z,78.65
2022-12-29T12:56:45.545Z,79.17
2022-12-29T12:59:50.682Z,78.54
2022-12-29T13:02:39.061Z,78.57
2022-12-29T13:05:39.956Z,78.37
2022-12-29T13:08:33.145Z,78.23
2022-12-29T13:11:29.851Z,78.08
2022-12-29T13:14:26.725Z,78.19
2022-12-29T13:17:13.551Z,78.23
2022-12-29T13:20:21.654Z,77.46
2022-12-29T13:23:37.601Z,76.74
2022-12-29T13:26:23.042Z,76.22
2022-12-29T13:29:13.225Z,76.62
2022-12-29T13:32:12.139Z,76.54
2022-12-29T13:35:23.294Z,75.33
2022-12-29T13:38:12.465Z,75.59
2022-12-29T13:40:46.745Z,76.05
2022-12-29T13:43:15.562Z,75.96
2022-12-29T13:45:45.151Z,76.02
2022-12-29T13:48:26.289Z,76.71
2022-12-29T13:50:58.674Z,76.85
2022-12-29T13:53:36.652Z,76.58
2022-12-29T13:56:21.752Z,76.52
2022-12-29T13:59:06.144Z,75.99
2022-12-29T14:01:55.976Z,76.38
2022-12-29T14:04:27.317Z,75.38
2022-12-29T14:07:05.681Z,76.00
2022-12-29T14:09:47.596Z,76.52
2022-12-29T14:12:34.665Z,76.99
2022-12-29T14:15:22.412Z,77.21
2022-12-29T14:18:26.866Z,77.08
2022-12-29T14:21:20.134Z,77.28
2022-12-29T14:23:50.545Z,77.27
2022-12-29T14:26:32.970Z,77.43
2022-12-29T14:29:40.600Z,78.14
2022-12-29T14:32:22.574Z,78.04
2022-12-29T14:34:52.437Z,77.73
2022-12-29T14:37:31.140Z,77.95
2022-12-29T14:40:27.490Z,77.08
2022-12-29T14:42:58.713Z,77.35
2022-12-29T14:45:31.750Z,78.35
2022-12-29T14:47:59.193Z,77.95
2022-12-29T14:50:40.970Z,78.08
2022-12-29T14:53:47.747Z,77.61
2022-12-29T14:56:19.327Z,77.87
2022-12-29T14:58:53.238Z,76.73
2022-12-29T15:01:28.052Z,76.49
2022-12-29T15:03:58.967Z,75.69
2022-12-29T15:06:30.811Z,74.92
2022-12-29T15:09:07.954Z,74.03
2022-12-29T15:11:37.806Z,74.74
2022-12-29T15:14:04.911Z,74.88
2022-12-29T15:16:36.977Z,75.17
2022-12-29T15:19:06.273Z,75.45
2022-12-29T15:21:37.781Z,75.62
2022-12-29T15:24:05.662Z,75.52
2022-12-29T15:26:42.292Z,76.04
2022-12-29T15:29:38.355Z,76.43
2022-12-29T15:32:23.524Z,76.73
2022-12-29T15:34:52.851Z,76.83
2022-12-29T15:37:26.791Z,77.12
2022-12-29T15:39:56.126Z,76.54
2022-12-29T15:42:51.193Z,76.98
2022-12-29T15:45:18.133Z,77.50
2022-12-29T15:47:49.962Z,77.14
2022-12-29T15:50:28.866Z,77.19
2022-12-29T15:52:57.040Z,77.68
2022-12-29T15:55:35.806Z,77.38
2022-12-29T15:58:20.063Z,77.13
2022-12-29T16:00:51.621Z,77.55
2022-12-29T16:03:18.873Z,77.49
2022-12-29T16:05:57.194Z,78.22
2022-12-29T16:08:34.352Z,77.71
2022-12-29T16:11:09.226Z,78.05
2022-12-29T16:13:41.398Z,78.55
2022-12-29T16:16:21.081Z,78.09
2022-12-29T16:18:52.006Z,78.52
2022-12-29T16:21:35.497Z,78.79
2022-12-29T16:24:09.557Z,79.44
2022-12-29T16:26:37.408Z,79.62
2022-12-29T16:29:08.008Z,79.73
2022-12-29T16:31:36.303Z,80.32
2022-12-29T16:34:33.158Z,80.66
2022-12-29T16:37:04.092Z,81.03
2022-12-29T16:39:36.212Z,81.67
2022-12-29T16:42:37.916Z,82.34
2022-12-29T16:45:20.124Z,82.20
2022-12-29T16:47:50.804Z,82.56
2022-12-29T16:50:28.230Z,82.82
2022-12-29T16:52:55.390Z,83.29
2022-12-29T16:55:22.599Z,83.30
2022-12-29T16:57:54.618Z,83.46
2022-12-29T17:00:31.713Z,83.50
2022-12-29T17:03:01.430Z,84.04
2022-12-29T17:05:28.532Z,84.44
2022-12-29T17:07:56.121Z,84.58
2022-12-29T17:10:42.909Z,84.94
2022-12-29T17:13:09.898Z,85.08
2022-12-29T17:15:36.959Z,85.43
2022-12-29T17:18:06.379Z,85.83
2022-12-29T17:20:36.993Z,86.04
2022-12-29T17:23:19.951Z,86.29
2022-12-29T17:25:51.824Z,86.27
2022-12-29T17:28:26.252Z,86.31
2022-12-29T17:30:55.464Z,86.75
2022-12-29T17:33:22.569Z,86.79
2022-12-29T17:35:54.871Z,86.86
2022-12-29T17:38:29.071Z,87.29
2022-12-29T17:40:56.283Z,87.57
2022-12-29T17:43:23.713Z,87.83
2022-12-29T17:45:58.116Z,88.10
2022-12-29T17:48:28.997Z,88.33
2022-12-29T17:50:58.322Z,88.35
2022-12-29T17:53:28.723Z,89.36
2022-12-29T17:55:55.755Z,89.73
2022-12-29T17:58:33.247Z,89.79
2022-12-29T18:01:02.723Z,89.42
2022-12-29T18:03:34.002Z,89.83
2022-12-29T18:06:02.441Z,90.00
2022-12-29T18:08:29.605Z,90.20
2022-12-29T18:10:57.108Z,90.51
2022-12-29T18:13:35.790Z,90.41
2022-12-29T18:16:11.767Z,90.68
2022-12-29T18:18:38.584Z,90.90
2022-12-29T18:21:05.988Z,90.79
2022-12-29T18:23:37.073Z,90.70
2022-12-29T18:26:23.916Z,90.82
2022-12-29T18:28:54.196Z,91.00
2022-12-29T18:31:21.129Z,90.86
2022-12-29T18:33:50.301Z,91.41
2022-12-29T18:36:18.879Z,91.18
2022-12-29T18:38:46.083Z,90.97
2022-12-29T18:41:20.319Z,91.42
2022-12-29T18:43:47.637Z,91.32
2022-12-29T18:46:20.505Z,91.12
2022-12-29T18:48:49.420Z,91.44
2022-12-29T18:51:21.841Z,91.40
2022-12-29T18:53:49.547Z,91.28
2022-12-29T18:56:16.391Z,91.27
2022-12-29T18:58:43.547Z,91.50
2022-12-29T19:01:24.071Z,91.27
2022-12-29T19:03:52.071Z,91.63
2022-12-29T19:06:21.121Z,91.50
2022-12-29T19:08:47.991Z,91.41
2022-12-29T19:11:15.031Z,91.24
2022-12-29T19:13:41.902Z,91.25
2022-12-29T19:16:19.418Z,91.40
2022-12-29T19:18:53.306Z,91.56
2022-12-29T19:21:30.787Z,91.57
2022-12-29T19:23:57.573Z,91.69
2022-12-29T19:26:36.158Z,91.55
2022-12-29T19:29:04.411Z,92.00
2022-12-29T19:31:31.718Z,92.41
2022-12-29T19:33:58.620Z,92.52
2022-12-29T19:36:25.399Z,92.81
2022-12-29T19:38:52.427Z,92.88
2022-12-29T19:41:19.298Z,93.27
2022-12-29T19:43:46.327Z,93.04
2022-12-29T19:46:19.866Z,93.06
2022-12-29T19:48:46.770Z,93.61
2022-12-29T19:51:17.524Z,93.33
2022-12-29T19:53:46.113Z,93.58
2022-12-29T19:56:14.511Z,93.51
2022-12-29T19:58:46.968Z,93.92
2022-12-29T20:01:23.246Z,94.12
2022-12-29T20:03:51.316Z,94.19
2022-12-29T20:06:19.207Z,93.98
2022-12-29T20:08:46.149Z,94.00
2022-12-29T20:11:16.694Z,94.18
2022-12-29T20:13:45.007Z,94.07
2022-12-29T20:16:18.693Z,94.28
2022-12-29T20:18:47.101Z,93.76
2022-12-29T20:21:19.743Z,93.99
2022-12-29T20:23:48.021Z,94.65
2022-12-29T20:26:19.265Z,94.42
2022-12-29T20:28:47.041Z,94.27
2022-12-29T20:31:23.678Z,94.32
2022-12-29T20:33:50.989Z,94.32
2022-12-29T20:36:24.462Z,94.21
2022-12-29T20:38:53.633Z,94.42
2022-12-29T20:41:21.386Z,94.63
2022-12-29T20:43:48.572Z,94.45
2022-12-29T20:46:20.411Z,94.70
2022-12-29T20:48:49.393Z,94.78
2022-12-29T20:51:16.668Z,95.07
2022-12-29T20:53:43.568Z,95.55
2022-12-29T20:56:19.483Z,95.26
2022-12-29T20:59:25.278Z,95.42
2022-12-29T21:01:34.503Z,95.45
2022-12-29T21:04:05.799Z,95.43
2022-12-29T21:06:33.880Z,95.49
2022-12-29T21:09:01.432Z,95.86
2022-12-29T21:11:28.497Z,95.49
2022-12-29T21:13:59.267Z,95.53
2022-12-29T21:16:28.116Z,95.28
2022-12-29T21:18:55.321Z,95.23
2022-12-29T21:21:25.928Z,95.16
2022-12-29T21:23:53.461Z,95.02
2022-12-29T21:26:23.821Z,95.06
2022-12-29T21:28:51.490Z,95.29
2022-12-29T21:31:31.558Z,95.10
2022-12-29T21:33:59.271Z,95.13
2022-12-29T21:36:27.611Z,94.93
2022-12-29T21:38:55.929Z,95.04
2022-12-29T21:41:23.157Z,95.17
2022-12-29T21:44:09.828Z,95.17
2022-12-29T21:46:39.832Z,95.21
2022-12-29T21:49:08.432Z,95.07
2022-12-29T21:51:51.377Z,94.95
2022-12-29T21:54:45.893Z,94.99
2022-12-29T21:57:34.666Z,94.99
2022-12-29T22:00:20.398Z,95.16
2022-12-29T22:03:05.926Z,95.16
2022-12-29T22:05:51.200Z,96.00
2022-12-29T22:08:36.944Z,95.81
2022-12-29T22:11:28.284Z,95.55
2022-12-29T22:13:56.432Z,95.90
2022-12-29T22:16:25.416Z,95.97
2022-12-29T22:18:52.540Z,95.91
2022-12-29T22:21:20.057Z,95.84
2022-12-29T22:23:46.899Z,95.83
2022-12-29T22:26:15.083Z,95.69
2022-12-29T22:28:46.419Z,95.67
2022-12-29T22:31:43.147Z,95.63
2022-12-29T22:34:11.261Z,95.59
2022-12-29T22:36:38.096Z,95.48
2022-12-29T22:39:04.908Z,95.68
2022-12-29T22:41:31.742Z,95.51
2022-12-29T22:43:58.914Z,96.10
2022-12-29T22:46:28.883Z,96.00
2022-12-29T22:48:57.822Z,95.96
2022-12-29T22:51:24.601Z,96.91
2022-12-29T22:53:52.088Z,96.82
2022-12-29T22:56:20.897Z,97.49
2022-12-29T22:58:48.624Z,97.56
2022-12-29T23:01:21.501Z,97.55
2022-12-29T23:03:48.845Z,97.74
2022-12-29T23:06:17.475Z,97.75
2022-12-29T23:08:45.244Z,97.89
2022-12-29T23:11:13.478Z,97.86
2022-12-29T23:13:41.237Z,98.03
2022-12-29T23:16:08.633Z,98.43
2022-12-29T23:18:35.680Z,98.59
2022-12-29T23:21:03.304Z,98.78
2022-12-29T23:23:49.760Z,99.31
2022-12-29T23:26:32.323Z,100.00
2022-12-29T23:29:00.834Z,100.00
2022-12-29T23:31:30.153Z,100.00
2022-12-29T23:33:58.297Z,100.00
2022-12-29T23:36:25.848Z,100.00
2022-12-29T23:38:52.826Z,100.00
2022-12-29T23:41:19.619Z,100.00
2022-12-29T23:43:48.042Z,100.00
2022-12-29T23:46:18.801Z,100.00
2022-12-29T23:48:46.096Z,100.00
2022-12-29T23:51:13.742Z,100.00
2022-12-29T23:53:43.342Z,100.00
2022-12-29T23:56:20.847Z,100.00
2022-12-29T23:58:48.443Z,100.00
